This is the latest recevied weather packets stored in our database for station/object YO8RIX. If no packets are shown the sender has not sent any weather packets the latest 10 day(s).
| Time | Temp. | Humidity | Pressure | Rain* | Wind** | Luminosity | Snow |
|---|---|---|---|---|---|---|---|
| 1777166129 | 8.89° C | 73% | 1007.5 hPa | 0 mm | - | 0 W/m² | - |
| 1777164922 | 8.89° C | 73% | 1007.7 hPa | 0 mm | - | 0 W/m² | - |
| 1777161923 | 9.44° C | 73% | 1008.2 hPa | 0 mm | - | 0 W/m² | - |
| 1777157133 | 10° C | 71% | 1008.7 hPa | 0 mm | - | 0 W/m² | - |
| 1777156531 | 9.44° C | 73% | 1008.7 hPa | 0 mm | - | 0 W/m² | - |
| 1777150531 | 9.44° C | 75% | 1009.4 hPa | 0 mm | - | 0 W/m² | - |
| 1777145719 | 11.11° C | 69% | 1009.6 hPa | 0 mm | - | 0 W/m² | - |
| 1777142720 | 13.33° C | 60% | 1009.7 hPa | 0 mm | - | 0 W/m² | - |
| 1777136118 | 16.67° C | 50% | 1009.5 hPa | 0 mm | - | 12 W/m² | - |
| 1777132536 | 18.89° C | 42% | 1009.9 hPa | 0 mm | - | 36 W/m² | - |
| 1777119936 | 17.78° C | 43% | 1012 hPa | 0 mm | - | 182 W/m² | - |
| 1777109731 | 16.67° C | 41% | 1013.4 hPa | 0 mm | - | 647 W/m² | - |
| 1777109127 | 16.67° C | 44% | 1013.6 hPa | 0 mm | - | 620 W/m² | - |
| 1777108523 | 16.11° C | 43% | 1013.7 hPa | 0 mm | - | 610 W/m² | - |
| 1777106128 | 15° C | 49% | 1014.3 hPa | 0 mm | - | 297 W/m² | - |
| 1777100733 | 10.56° C | 73% | 1014.5 hPa | 0 mm | - | 165 W/m² | - |
| 1777100129 | 10° C | 74% | 1014.5 hPa | 0 mm | - | 141 W/m² | - |
| 1777097734 | 9.44° C | 75% | 1014.4 hPa | 0 mm | - | 89 W/m² | - |
| 1777094131 | 7.22° C | 79% | 1014.3 hPa | 0 mm | - | 88 W/m² | - |
| 1777093528 | 6.67° C | 79% | 1014.3 hPa | 0 mm | - | 88 W/m² | - |
| 1777091736 | 4.44° C | 82% | 1014.4 hPa | 0 mm | - | 39 W/m² | - |
| 1777091137 | 5° C | 81% | 1014.3 hPa | 0 mm | - | 32 W/m² | - |
| 1777089925 | 6.67° C | 76% | 1014.2 hPa | 0 mm | - | 39 W/m² | - |
| 1777086926 | 3.33° C | 84% | 1014.2 hPa | 0 mm | - | 4 W/m² | - |
| 1777085737 | 3.33° C | 83% | 1014.3 hPa | 0 mm | - | 0 W/m² | - |
* Rain latest hour (hover to see other rain measurements)
** Current wind speed in m/s (hover to see current wind gust speed)